createdAt,value
2023-04-06T00:00:00.177Z,100122.27
2023-04-06T00:02:34.303Z,100127.84
2023-04-06T00:05:09.287Z,100119.11
2023-04-06T00:07:42.690Z,100117.32
2023-04-06T00:10:16.553Z,100111.55
2023-04-06T00:12:50.026Z,100108.91
2023-04-06T00:15:24.139Z,100110.73
2023-04-06T00:17:58.217Z,100103.65
2023-04-06T00:20:32.033Z,100101.20
2023-04-06T00:23:05.769Z,100101.52
2023-04-06T00:25:40.128Z,100095.59
2023-04-06T00:28:13.519Z,100097.39
2023-04-06T00:30:47.344Z,100093.95
2023-04-06T00:33:20.904Z,100090.66
2023-04-06T00:35:54.552Z,100087.19
2023-04-06T00:38:28.711Z,100090.66
2023-04-06T00:41:02.660Z,100082.77
2023-04-06T00:43:36.458Z,100080.95
2023-04-06T00:46:10.554Z,100080.95
2023-04-06T00:48:44.066Z,100080.28
2023-04-06T00:51:18.093Z,100072.57
2023-04-06T00:53:52.084Z,100071.07
2023-04-06T00:56:27.485Z,100073.22
2023-04-06T00:59:01.819Z,100078.62
2023-04-06T01:01:35.845Z,100063.83
2023-04-06T01:04:13.875Z,100071.05
2023-04-06T01:06:48.681Z,100062.50
2023-04-06T01:09:22.121Z,100063.34
2023-04-06T01:12:00.621Z,100064.33
2023-04-06T01:14:36.649Z,100061.03
2023-04-06T01:17:10.976Z,100060.86
2023-04-06T01:19:46.535Z,100055.92
2023-04-06T01:22:26.867Z,100057.42
2023-04-06T01:25:08.316Z,100060.05
2023-04-06T01:27:54.012Z,100057.56
2023-04-06T01:30:53.810Z,100052.48
2023-04-06T01:33:54.176Z,100046.39
2023-04-06T01:36:30.855Z,100045.26
2023-04-06T01:39:12.554Z,100038.36
2023-04-06T01:41:48.268Z,100041.79
2023-04-06T01:44:22.932Z,100034.08
2023-04-06T01:47:02.765Z,100029.63
2023-04-06T01:49:36.667Z,100032.26
2023-04-06T01:52:11.001Z,100021.92
2023-04-06T01:54:44.934Z,100022.24
2023-04-06T01:57:24.534Z,100022.56
2023-04-06T02:00:03.970Z,100020.92
2023-04-06T02:02:52.353Z,100015.80
2023-04-06T02:05:31.056Z,100015.80
2023-04-06T02:08:05.886Z,100015.80
2023-04-06T02:10:41.552Z,100008.09
2023-04-06T02:13:21.267Z,100007.44
2023-04-06T02:15:58.339Z,99996.26
2023-04-06T02:18:34.568Z,99999.03
2023-04-06T02:21:08.393Z,100000.67
2023-04-06T02:23:41.810Z,99999.88
2023-04-06T02:26:15.241Z,100000.02
2023-04-06T02:28:49.182Z,99994.76
2023-04-06T02:31:22.559Z,99990.48
2023-04-06T02:33:56.456Z,99997.39
2023-04-06T02:36:30.608Z,99999.20
2023-04-06T02:39:04.629Z,99994.09
2023-04-06T02:41:38.823Z,99991.47
2023-04-06T02:44:13.121Z,99995.08
2023-04-06T02:46:50.316Z,99989.83
2023-04-06T02:49:23.915Z,99983.77
2023-04-06T02:51:58.025Z,99983.91
2023-04-06T02:54:35.690Z,99990.14
2023-04-06T02:57:10.285Z,99980.62
2023-04-06T02:59:47.286Z,99984.23
2023-04-06T03:02:31.853Z,99986.86
2023-04-06T03:05:12.841Z,99985.06
2023-04-06T03:07:49.058Z,99984.23
2023-04-06T03:10:31.139Z,99984.23
2023-04-06T03:13:05.017Z,99986.05
2023-04-06T03:16:12.080Z,99983.42
2023-04-06T03:18:46.807Z,99985.87
2023-04-06T03:21:20.708Z,99986.71
2023-04-06T03:23:56.273Z,99986.05
2023-04-06T03:26:29.667Z,99987.52
2023-04-06T03:29:05.110Z,99977.98
2023-04-06T03:31:39.202Z,99985.87
2023-04-06T03:34:17.292Z,99978.97
2023-04-06T03:36:59.785Z,99981.78
2023-04-06T03:39:42.105Z,99978.16
2023-04-06T03:42:16.891Z,99976.34
2023-04-06T03:44:57.879Z,99975.53
2023-04-06T03:47:31.924Z,99979.81
2023-04-06T03:50:11.172Z,99979.81
2023-04-06T03:52:44.618Z,99980.62
2023-04-06T03:55:20.625Z,99979.63
2023-04-06T03:57:55.044Z,99990.32
2023-04-06T04:00:28.540Z,99997.37
2023-04-06T04:03:03.425Z,99990.47
2023-04-06T04:05:37.099Z,99992.11
2023-04-06T04:08:11.144Z,99991.97
2023-04-06T04:10:44.499Z,99998.03
2023-04-06T04:13:18.491Z,100002.30
2023-04-06T04:15:54.130Z,100002.48
2023-04-06T04:18:28.145Z,99995.41
2023-04-06T04:21:01.946Z,99989.16
2023-04-06T04:23:37.394Z,99995.26
2023-04-06T04:26:11.303Z,99994.27
2023-04-06T04:28:45.202Z,99994.27
2023-04-06T04:31:21.158Z,99993.29
2023-04-06T04:33:56.302Z,99997.39
2023-04-06T04:36:36.551Z,99995.74
2023-04-06T04:39:13.331Z,99992.79
2023-04-06T04:41:49.297Z,99993.63
2023-04-06T04:44:23.681Z,99993.45
2023-04-06T04:46:58.019Z,99990.83
2023-04-06T04:49:37.353Z,99990.50
2023-04-06T04:52:11.568Z,99990.50
2023-04-06T04:54:54.813Z,99991.16
2023-04-06T04:57:32.283Z,99981.31
2023-04-06T05:00:06.361Z,99996.94
2023-04-06T05:02:40.801Z,99997.42
2023-04-06T05:05:35.662Z,99991.84
2023-04-06T05:08:10.343Z,99994.32
2023-04-06T05:10:54.896Z,99994.98
2023-04-06T05:13:28.776Z,99999.25
2023-04-06T05:16:02.597Z,99999.08
2023-04-06T05:18:39.819Z,99994.48
2023-04-06T05:21:14.820Z,99991.70
2023-04-06T05:23:59.064Z,99996.45
2023-04-06T05:26:34.506Z,99995.47
2023-04-06T05:29:13.437Z,99991.71
2023-04-06T05:31:47.482Z,99991.53
2023-04-06T05:34:21.863Z,99989.56
2023-04-06T05:36:56.484Z,99990.22
2023-04-06T05:39:31.519Z,99992.52
2023-04-06T05:42:09.250Z,99983.64
2023-04-06T05:45:00.053Z,99984.30
2023-04-06T05:47:34.284Z,99978.89
2023-04-06T05:50:18.788Z,99978.56
2023-04-06T05:52:52.568Z,99979.22
2023-04-06T05:55:28.965Z,99980.69
2023-04-06T05:58:13.328Z,99973.12
2023-04-06T06:00:48.131Z,99972.97
2023-04-06T06:03:24.087Z,99969.83
2023-04-06T06:06:05.606Z,99972.96
2023-04-06T06:08:59.570Z,99969.16
2023-04-06T06:11:34.192Z,99969.66
2023-04-06T06:14:08.370Z,99962.89
2023-04-06T06:16:43.109Z,99955.66
2023-04-06T06:19:18.443Z,99957.95
2023-04-06T06:21:52.288Z,99957.62
2023-04-06T06:24:26.049Z,99957.13
2023-04-06T06:26:59.920Z,99950.53
2023-04-06T06:29:34.880Z,99951.00
2023-04-06T06:32:10.194Z,99955.59
2023-04-06T06:34:43.911Z,99962.66
2023-04-06T06:37:18.347Z,99959.51
2023-04-06T06:39:52.820Z,99966.08
2023-04-06T06:42:27.596Z,99963.10
2023-04-06T06:45:17.085Z,99961.43
2023-04-06T06:47:52.920Z,99959.10
2023-04-06T06:50:28.546Z,99967.97
2023-04-06T06:53:02.185Z,99972.55
2023-04-06T06:55:35.481Z,99971.22
2023-04-06T06:58:10.083Z,99969.07
2023-04-06T07:00:43.593Z,99968.57
2023-04-06T07:03:17.542Z,99974.14
2023-04-06T07:05:55.335Z,99978.08
2023-04-06T07:08:30.221Z,99978.72
2023-04-06T07:11:03.890Z,99975.74
2023-04-06T07:13:37.266Z,99977.19
2023-04-06T07:16:11.293Z,99975.05
2023-04-06T07:18:45.132Z,99979.78
2023-04-06T07:21:19.021Z,99976.80
2023-04-06T07:23:53.045Z,99975.30
2023-04-06T07:26:26.699Z,99971.96
2023-04-06T07:29:00.377Z,99979.33
2023-04-06T07:31:34.754Z,99968.43
2023-04-06T07:34:08.811Z,99974.84
2023-04-06T07:36:43.486Z,99971.49
2023-04-06T07:39:16.897Z,99971.78
2023-04-06T07:41:50.998Z,99964.19
2023-04-06T07:44:24.905Z,99965.13
2023-04-06T07:46:59.049Z,99962.77
2023-04-06T07:49:34.062Z,99965.50
2023-04-06T07:52:08.873Z,99964.78
2023-04-06T07:54:43.065Z,99962.91
2023-04-06T07:57:17.010Z,99964.47
2023-04-06T07:59:50.797Z,99961.91
2023-04-06T08:02:24.598Z,99956.74
2023-04-06T08:04:58.625Z,99966.38
2023-04-06T08:07:32.898Z,99955.56
2023-04-06T08:10:06.866Z,99954.47
2023-04-06T08:12:40.714Z,99959.66
2023-04-06T08:15:15.472Z,99960.36
2023-04-06T08:17:49.088Z,99963.37
2023-04-06T08:20:23.141Z,99951.86
2023-04-06T08:22:56.880Z,99955.86
2023-04-06T08:25:30.721Z,99954.38
2023-04-06T08:28:04.700Z,99945.31
2023-04-06T08:30:39.111Z,99950.53
2023-04-06T08:33:13.537Z,99942.93
2023-04-06T08:35:46.739Z,99947.50
2023-04-06T08:38:20.587Z,99955.77
2023-04-06T08:40:54.189Z,99943.85
2023-04-06T08:43:29.818Z,99945.97
2023-04-06T08:46:03.607Z,99946.06
2023-04-06T08:48:38.635Z,99952.28
2023-04-06T08:51:12.613Z,99944.62
2023-04-06T08:53:46.628Z,99943.69
2023-04-06T08:56:21.704Z,99947.83
2023-04-06T08:58:56.281Z,99944.03
2023-04-06T09:01:30.742Z,99943.24
2023-04-06T09:04:10.495Z,99934.30
2023-04-06T09:06:44.023Z,99938.63
2023-04-06T09:09:17.668Z,99937.63
2023-04-06T09:11:53.336Z,99936.84
2023-04-06T09:14:40.116Z,99943.37
2023-04-06T09:17:24.274Z,99939.08
2023-04-06T09:19:58.463Z,99940.73
2023-04-06T09:22:40.185Z,99945.00
2023-04-06T09:25:24.103Z,99943.98
2023-04-06T09:28:05.157Z,99942.75
2023-04-06T09:30:39.566Z,99945.22
2023-04-06T09:33:12.987Z,99930.50
2023-04-06T09:35:53.623Z,99946.63
2023-04-06T09:38:27.332Z,99949.90
2023-04-06T09:41:01.730Z,99939.87
2023-04-06T09:43:35.556Z,99939.46
2023-04-06T09:46:10.366Z,99949.71
2023-04-06T09:48:44.317Z,99943.56
2023-04-06T09:51:20.912Z,99949.07
2023-04-06T09:54:02.565Z,99946.41
2023-04-06T09:56:40.662Z,99943.37
2023-04-06T09:59:22.095Z,99950.13
2023-04-06T10:01:58.450Z,99949.70
2023-04-06T10:04:39.772Z,99953.38
2023-04-06T10:07:14.556Z,99953.38
2023-04-06T10:09:50.374Z,99943.16
2023-04-06T10:12:24.062Z,99946.43
2023-04-06T10:14:58.664Z,99955.04
2023-04-06T10:17:32.629Z,99944.19
2023-04-06T10:20:11.705Z,99953.00
2023-04-06T10:22:55.570Z,99953.38
2023-04-06T10:25:33.632Z,99943.16
2023-04-06T10:28:10.949Z,99944.80
2023-04-06T10:30:47.862Z,99945.22
2023-04-06T10:33:23.000Z,99946.86
2023-04-06T10:35:57.765Z,99941.13
2023-04-06T10:38:42.316Z,99946.63
2023-04-06T10:41:19.608Z,99943.56
2023-04-06T10:44:00.016Z,99936.58
2023-04-06T10:46:35.945Z,99934.34
2023-04-06T10:49:16.401Z,99937.98
2023-04-06T10:51:53.769Z,99937.14
2023-04-06T10:54:29.400Z,99925.48
2023-04-06T10:57:03.574Z,99930.98
2023-04-06T10:59:37.298Z,99929.95
2023-04-06T11:02:10.625Z,99917.27
2023-04-06T11:04:44.718Z,99920.52
2023-04-06T11:07:28.148Z,99920.70
2023-04-06T11:10:15.054Z,99918.05
2023-04-06T11:12:57.735Z,99912.07
2023-04-06T11:15:38.024Z,99913.88
2023-04-06T11:18:13.158Z,99912.43
2023-04-06T11:20:51.725Z,99907.89
2023-04-06T11:23:33.817Z,99908.12
2023-04-06T11:26:12.557Z,99907.09
2023-04-06T11:28:46.958Z,99902.37
2023-04-06T11:31:20.799Z,99901.11
2023-04-06T11:33:59.618Z,99900.50
2023-04-06T11:36:33.513Z,99901.53
2023-04-06T11:39:07.638Z,99898.08
2023-04-06T11:41:41.983Z,99887.00
2023-04-06T11:44:15.549Z,99887.37
2023-04-06T11:46:59.586Z,99894.13
2023-04-06T11:49:35.133Z,99889.01
2023-04-06T11:52:19.136Z,99890.87
2023-04-06T11:54:53.913Z,99891.06
2023-04-06T11:57:29.166Z,99885.75
2023-04-06T12:00:02.732Z,99883.91
2023-04-06T12:02:38.873Z,99886.14
2023-04-06T12:05:13.829Z,99881.42
2023-04-06T12:07:47.432Z,99882.62
2023-04-06T12:10:21.225Z,99883.83
2023-04-06T12:12:54.836Z,99890.95
2023-04-06T12:15:28.573Z,99884.96
2023-04-06T12:18:02.296Z,99881.87
2023-04-06T12:20:36.237Z,99876.11
2023-04-06T12:23:09.838Z,99863.19
2023-04-06T12:25:45.451Z,99870.52
2023-04-06T12:28:21.973Z,99861.29
2023-04-06T12:30:56.768Z,99868.25
2023-04-06T12:33:31.069Z,99861.02
2023-04-06T12:36:04.799Z,99859.30
2023-04-06T12:38:41.423Z,99855.75
2023-04-06T12:41:16.105Z,99856.95
2023-04-06T12:43:50.937Z,99861.39
2023-04-06T12:46:24.434Z,99853.55
2023-04-06T12:48:58.948Z,99851.24
2023-04-06T12:51:33.457Z,99850.20
2023-04-06T12:54:07.210Z,99858.00
2023-04-06T12:56:41.031Z,99860.22
2023-04-06T12:59:14.831Z,99859.77
2023-04-06T13:01:48.645Z,99853.85
2023-04-06T13:04:22.792Z,99843.40
2023-04-06T13:06:56.601Z,99844.82
2023-04-06T13:09:30.399Z,99848.67
2023-04-06T13:12:04.309Z,99847.19
2023-04-06T13:14:37.830Z,99849.77
2023-04-06T13:17:12.241Z,99842.16
2023-04-06T13:19:46.847Z,99835.34
2023-04-06T13:22:20.317Z,99836.97
2023-04-06T13:24:53.730Z,99835.69
2023-04-06T13:27:28.563Z,99830.59
2023-04-06T13:30:02.681Z,99832.43
2023-04-06T13:32:37.922Z,99836.97
2023-04-06T13:35:13.734Z,99828.38
2023-04-06T13:37:47.583Z,99830.45
2023-04-06T13:40:22.465Z,99825.56
2023-04-06T13:42:56.042Z,99819.85
2023-04-06T13:45:29.318Z,99825.04
2023-04-06T13:48:03.144Z,99822.82
2023-04-06T13:50:36.806Z,99822.02
2023-04-06T13:53:10.408Z,99821.19
2023-04-06T13:55:43.599Z,99821.43
2023-04-06T13:58:17.198Z,99819.66
2023-04-06T14:00:51.090Z,99814.98
2023-04-06T14:03:25.321Z,99818.53
2023-04-06T14:06:01.390Z,99815.06
2023-04-06T14:08:38.759Z,99816.45
2023-04-06T14:11:15.956Z,99818.03
2023-04-06T14:13:49.523Z,99820.16
2023-04-06T14:16:24.177Z,99813.73
2023-04-06T14:18:58.956Z,99819.79
2023-04-06T14:21:33.167Z,99818.06
2023-04-06T14:24:07.118Z,99817.62
2023-04-06T14:26:42.550Z,99817.55
2023-04-06T14:29:17.183Z,99818.48
2023-04-06T14:31:51.885Z,99817.00
2023-04-06T14:34:25.073Z,99820.97
2023-04-06T14:36:58.412Z,99814.39
2023-04-06T14:39:31.866Z,99812.52
2023-04-06T14:42:05.261Z,99825.51
2023-04-06T14:44:44.110Z,99828.04
2023-04-06T14:47:21.639Z,99821.73
2023-04-06T14:49:55.634Z,99816.27
2023-04-06T14:52:31.298Z,99827.38
2023-04-06T14:55:08.067Z,99821.11
2023-04-06T14:57:41.388Z,99817.27
2023-04-06T15:00:18.583Z,99823.25
2023-04-06T15:02:52.100Z,99829.86
2023-04-06T15:05:26.625Z,99832.59
2023-04-06T15:07:59.789Z,99833.48
2023-04-06T15:10:33.342Z,99830.08
2023-04-06T15:13:06.912Z,99830.38
2023-04-06T15:15:40.282Z,99834.75
2023-04-06T15:18:13.680Z,99835.84
2023-04-06T15:20:47.000Z,99840.41
2023-04-06T15:23:20.571Z,99834.75
2023-04-06T15:25:54.256Z,99839.12
2023-04-06T15:28:28.435Z,99846.55
2023-04-06T15:31:07.154Z,99849.88
2023-04-06T15:33:41.824Z,99849.13
2023-04-06T15:36:27.660Z,99848.13
2023-04-06T15:39:01.659Z,99858.02
2023-04-06T15:41:35.233Z,99857.64
2023-04-06T15:44:08.842Z,99851.13
2023-04-06T15:46:42.654Z,99857.08
2023-04-06T15:49:16.191Z,99850.55
2023-04-06T15:51:51.487Z,99861.02
2023-04-06T15:54:24.750Z,99859.83
2023-04-06T15:56:58.276Z,99862.31
2023-04-06T15:59:31.672Z,99867.03
2023-04-06T16:02:05.151Z,99874.64
2023-04-06T16:04:38.954Z,99875.48
2023-04-06T16:07:12.088Z,99873.68
2023-04-06T16:09:45.660Z,99870.23
2023-04-06T16:12:19.363Z,99877.01
2023-04-06T16:14:53.471Z,99870.48
2023-04-06T16:17:26.835Z,99878.27
2023-04-06T16:20:00.197Z,99884.81
2023-04-06T16:22:33.736Z,99884.44
2023-04-06T16:25:08.488Z,99885.88
2023-04-06T16:27:42.087Z,99883.04
2023-04-06T16:30:17.733Z,99885.51
2023-04-06T16:32:52.056Z,99888.59
2023-04-06T16:35:27.117Z,99890.83
2023-04-06T16:38:01.320Z,99900.02
2023-04-06T16:40:34.593Z,99893.71
2023-04-06T16:43:09.967Z,99899.45
2023-04-06T16:45:44.264Z,99905.36
2023-04-06T16:48:17.735Z,99909.05
2023-04-06T16:50:51.656Z,99911.06
2023-04-06T16:53:25.499Z,99918.42
2023-04-06T16:55:59.836Z,99923.13
2023-04-06T16:58:33.124Z,99926.41
2023-04-06T17:01:07.382Z,99929.28
2023-04-06T17:03:41.202Z,99929.69
2023-04-06T17:06:15.173Z,99933.37
2023-04-06T17:08:49.515Z,99935.41
2023-04-06T17:11:28.691Z,99941.53
2023-04-06T17:14:10.904Z,99954.80
2023-04-06T17:16:44.685Z,99953.98
2023-04-06T17:19:18.510Z,99950.69
2023-04-06T17:21:53.075Z,99951.89
2023-04-06T17:24:27.458Z,99958.39
2023-04-06T17:27:02.914Z,99970.99
2023-04-06T17:29:38.560Z,99976.03
2023-04-06T17:32:12.190Z,99975.57
2023-04-06T17:34:45.780Z,99975.73
2023-04-06T17:37:19.397Z,99984.47
2023-04-06T17:39:52.979Z,99990.94
2023-04-06T17:42:27.280Z,99997.80
2023-04-06T17:45:01.398Z,99996.06
2023-04-06T17:47:34.553Z,100009.63
2023-04-06T17:50:09.342Z,100013.84
2023-04-06T17:52:43.030Z,100024.82
2023-04-06T17:55:16.556Z,100037.81
2023-04-06T17:57:50.065Z,100033.28
2023-04-06T18:00:25.923Z,100039.78
2023-04-06T18:03:01.254Z,100048.48
2023-04-06T18:05:35.112Z,100057.19
2023-04-06T18:08:09.129Z,100055.20
2023-04-06T18:10:46.188Z,100056.33
2023-04-06T18:13:20.235Z,100055.61
2023-04-06T18:15:54.723Z,100068.94
2023-04-06T18:18:29.347Z,100070.05
2023-04-06T18:21:06.835Z,100070.36
2023-04-06T18:23:40.772Z,100082.67
2023-04-06T18:26:19.204Z,100093.61
2023-04-06T18:28:53.167Z,100096.98
2023-04-06T18:31:26.964Z,100102.00
2023-04-06T18:34:01.015Z,100101.73
2023-04-06T18:36:34.806Z,100108.37
2023-04-06T18:39:08.297Z,100105.27
2023-04-06T18:41:42.309Z,100118.39
2023-04-06T18:44:16.099Z,100112.55
2023-04-06T18:46:50.165Z,100118.07
2023-04-06T18:49:27.215Z,100123.42
2023-04-06T18:52:03.321Z,100118.41
2023-04-06T18:54:36.901Z,100126.05
2023-04-06T18:57:10.451Z,100125.91
2023-04-06T18:59:44.048Z,100126.16
2023-04-06T19:02:17.684Z,100127.03
2023-04-06T19:04:51.611Z,100129.86
2023-04-06T19:07:27.143Z,100128.37
2023-04-06T19:10:00.623Z,100125.09
2023-04-06T19:12:35.157Z,100129.56
2023-04-06T19:15:12.068Z,100134.20
2023-04-06T19:17:44.930Z,100130.72
2023-04-06T19:20:18.585Z,100137.00
2023-04-06T19:22:52.389Z,100129.27
2023-04-06T19:25:26.809Z,100138.53
2023-04-06T19:28:01.015Z,100140.88
2023-04-06T19:30:34.476Z,100142.21
2023-04-06T19:33:07.895Z,100135.30
2023-04-06T19:35:42.623Z,100142.56
2023-04-06T19:38:16.439Z,100147.19
2023-04-06T19:40:49.831Z,100138.13
2023-04-06T19:43:23.028Z,100146.05
2023-04-06T19:45:56.413Z,100142.73
2023-04-06T19:48:30.081Z,100155.27
2023-04-06T19:51:04.028Z,100160.89
2023-04-06T19:53:38.065Z,100158.26
2023-04-06T19:56:11.774Z,100160.89
2023-04-06T19:58:45.085Z,100159.90
2023-04-06T20:01:19.076Z,100160.73
2023-04-06T20:03:52.738Z,100168.81
2023-04-06T20:06:27.341Z,100169.80
2023-04-06T20:09:00.864Z,100177.72
2023-04-06T20:11:36.650Z,100177.72
2023-04-06T20:14:10.142Z,100173.44
2023-04-06T20:16:43.402Z,100173.63
2023-04-06T20:19:17.298Z,100180.70
2023-04-06T20:21:50.901Z,100175.42
2023-04-06T20:24:24.442Z,100173.13
2023-04-06T20:26:58.539Z,100173.13
2023-04-06T20:29:31.970Z,100170.67
2023-04-06T20:32:05.971Z,100171.67
2023-04-06T20:34:40.011Z,100177.10
2023-04-06T20:37:13.065Z,100183.55
2023-04-06T20:39:46.512Z,100182.91
2023-04-06T20:42:21.817Z,100186.53
2023-04-06T20:44:57.180Z,100180.95
2023-04-06T20:47:31.962Z,100183.92
2023-04-06T20:50:05.670Z,100187.89
2023-04-06T20:52:39.074Z,100181.97
2023-04-06T20:55:13.849Z,100191.86
2023-04-06T20:57:47.235Z,100185.62
2023-04-06T21:00:22.604Z,100189.24
2023-04-06T21:02:55.880Z,100198.30
2023-04-06T21:05:29.447Z,100191.71
2023-04-06T21:08:02.868Z,100202.78
2023-04-06T21:10:36.122Z,100202.13
2023-04-06T21:13:09.731Z,100201.80
2023-04-06T21:15:43.244Z,100203.93
2023-04-06T21:18:16.577Z,100207.89
2023-04-06T21:20:50.039Z,100205.59
2023-04-06T21:23:23.683Z,100213.97
2023-04-06T21:25:58.323Z,100212.33
2023-04-06T21:28:31.865Z,100212.66
2023-04-06T21:31:09.824Z,100218.92
2023-04-06T21:33:43.178Z,100220.89
2023-04-06T21:36:16.821Z,100219.25
2023-04-06T21:38:50.150Z,100215.80
2023-04-06T21:41:23.548Z,100220.23
2023-04-06T21:43:57.196Z,100216.80
2023-04-06T21:46:30.754Z,100222.06
2023-04-06T21:49:04.254Z,100218.59
2023-04-06T21:51:37.814Z,100223.05
2023-04-06T21:54:10.961Z,100222.06
2023-04-06T21:56:44.764Z,100219.43
2023-04-06T21:59:18.375Z,100222.06
2023-04-06T22:01:51.830Z,100223.86
2023-04-06T22:04:25.808Z,100232.59
2023-04-06T22:06:59.536Z,100231.11
2023-04-06T22:09:32.720Z,100237.03
2023-04-06T22:12:06.188Z,100228.31
2023-04-06T22:14:39.771Z,100229.12
2023-04-06T22:17:13.291Z,100237.87
2023-04-06T22:19:47.115Z,100227.48
2023-04-06T22:22:20.716Z,100229.12
2023-04-06T22:24:54.931Z,100234.06
2023-04-06T22:27:28.124Z,100233.27
2023-04-06T22:30:01.976Z,100225.36
2023-04-06T22:32:36.663Z,100229.78
2023-04-06T22:35:12.967Z,100226.34
2023-04-06T22:37:47.844Z,100224.37
2023-04-06T22:40:21.243Z,100228.80
2023-04-06T22:42:54.837Z,100223.37
2023-04-06T22:45:28.131Z,100226.82
2023-04-06T22:48:01.466Z,100223.20
2023-04-06T22:50:34.908Z,100224.03
2023-04-06T22:53:08.914Z,100221.55
2023-04-06T22:55:44.416Z,100221.22
2023-04-06T22:58:18.325Z,100217.78
2023-04-06T23:00:51.677Z,100217.78
2023-04-06T23:03:25.222Z,100209.03
2023-04-06T23:05:58.767Z,100209.69
2023-04-06T23:08:32.064Z,100212.33
2023-04-06T23:11:06.077Z,100208.05
2023-04-06T23:13:39.923Z,100212.33
2023-04-06T23:16:13.975Z,100204.75
2023-04-06T23:18:47.075Z,100215.47
2023-04-06T23:21:20.269Z,100216.80
2023-04-06T23:23:53.523Z,100213.65
2023-04-06T23:26:27.684Z,100203.44
2023-04-06T23:29:01.475Z,100214.31
2023-04-06T23:31:35.001Z,100209.37
2023-04-06T23:34:08.257Z,100210.53
2023-04-06T23:36:42.116Z,100202.13
2023-04-06T23:39:15.824Z,100205.92
2023-04-06T23:41:49.045Z,100208.70
2023-04-06T23:44:22.523Z,100202.78
2023-04-06T23:46:55.918Z,100219.09
2023-04-06T23:49:29.652Z,100210.67
2023-04-06T23:52:03.485Z,100210.02
2023-04-06T23:54:36.848Z,100217.25
2023-04-06T23:57:10.247Z,100217.43
2023-04-06T23:59:45.075Z,100212.48
